• Join FlightAware (Why Join?)
  • Login
  • US Flag 
07:46PM EST


 

Airport Tracker/Info


-or-


 

Live Flight TrackerFlight Track Log ✈ TRS1254 ✈ 17-May-2012 ✈ KSRQ - KMDW

Flight Track Log - Related Links

Times and Time Zones

All times are in EDT time to prevent confusion due to time zone crossing. See the TRS1254 flight status page for this flight to view local times or setup timezone preferences in your user account.

Time Position Orientation Groundspeed Altitude Reporting Facility
EDT Latitude Longitude Course Direction KTS MPH feet Rate Location/Type
03:47PM 27.4000 -82.5667 270° West 164 189 900  Level Tampa TRACON
03:48PM 27.4000 -82.6167 270° West 202 232 2,800 2,100 Climbing Tampa TRACON
03:49PM 27.4000 -82.7000 310° West 258 297 5,100 2,429 Climbing Tampa TRACON
03:50PM 27.4500 -82.7667 350° North 264 304 7,900 2,377 Climbing Tampa TRACON
03:52PM 27.5669 -82.7897 359° North 283 326 11,200 1,910 Climbing Miami Center
03:54PM 27.7325 -82.7917 North 375 432 14,300 1,868 Climbing Jacksonville Center
03:55PM 27.8389 -82.7894 359° North 375 432 16,400 1,950 Climbing Jacksonville Center
03:56PM 27.9494 -82.7917 North 380 437 18,200 1,750 Climbing Jacksonville Center
03:57PM 28.0686 -82.7867 359° North 400 460 19,900 900 Climbing Jacksonville Center
03:58PM 28.1853 -82.7889 356° North 410 472 20,000 807 Climbing Jacksonville Center
03:59PM 28.3022 -82.7983 343° North 415 478 21,500 1,866 Climbing Jacksonville Center
04:00PM 28.4128 -82.8358 342° North 420 483 23,700 1,934 Climbing Jacksonville Center
04:01PM 28.5256 -82.8783 340° North 415 478 25,400 1,587 Climbing Jacksonville Center
04:02PM 28.6425 -82.9258 345° North 432 497 26,900 1,400 Climbing Jacksonville Center
04:03PM 28.7656 -82.9636 342° North 443 510 28,200 1,400 Climbing Jacksonville Center
04:04PM 28.8886 -83.0089 343° North 455 524 29,700 1,550 Climbing Jacksonville Center
04:05PM 29.0117 -83.0517 343° North 461 531 31,300 1,150 Climbing Jacksonville Center
04:06PM 29.1306 -83.0922 343° North 461 531 32,000 350 Climbing Jacksonville Center
04:07PM 29.2517 -83.1353 343° North 456 525 32,000 -50 Level Jacksonville Center
04:08PM 29.3728 -83.1786 342° North 456 525 31,900  Descending Jacksonville Center
04:09PM 29.5042 -83.2267 344° North 456 525 32,000 50 Climbing Jacksonville Center
04:10PM 29.6125 -83.2628 341° North 445 512 32,000 -50 Level Jacksonville Center
04:11PM 29.7314 -83.3086 343° North 445 512 31,900 200 Descending Jacksonville Center
04:12PM 29.8628 -83.3547 343° North 445 512 32,400 550 Climbing Jacksonville Center
04:13PM 29.9836 -83.3961 343° North 445 512 33,000 400 Climbing Jacksonville Center
04:14PM 30.1003 -83.4375 342° North 445 512 33,200 850 Climbing Jacksonville Center
04:15PM 30.2192 -83.4814 342° North 445 512 34,700 1,300 Climbing Jacksonville Center
04:16PM 30.3358 -83.5256 344° North 440 506 35,800 650 Climbing Jacksonville Center
04:17PM 30.4528 -83.5650 341° North 440 506 36,000 100 Climbing Jacksonville Center
04:18PM 30.5464 -83.6017 344° North 440 506 36,000  Level Jacksonville Center
04:19PM 30.6714 -83.6436 342° North 440 506 36,000  Level Jacksonville Center
04:20PM 30.7881 -83.6881 343° North 440 506 36,000  Level Jacksonville Center
04:21PM 30.9028 -83.7278 343° North 440 506 36,000  Level Jacksonville Center
04:22PM 31.0194 -83.7703 342° North 435 501 36,000  Level Jacksonville Center
04:23PM 31.1339 -83.8150 343° North 435 501 36,000  Level Jacksonville Center
04:24PM 31.2506 -83.8572 342° North 435 501 36,000  Level Jacksonville Center
04:25PM 31.3917 -83.9125 343° North 444 511 36,000  Level Atlanta Center
04:26PM 31.5067 -83.9536 347° North 439 505 36,000  Level Atlanta Center
04:27PM 31.6256 -83.9853 350° North 439 505 36,000  Level Atlanta Center
04:28PM 31.7486 -84.0119 349° North 439 505 36,000  Level Atlanta Center
04:29PM 31.8553 -84.0364 350° North 439 505 36,000  Level Atlanta Center
04:30PM 31.9742 -84.0608 349° North 439 505 36,000  Level Atlanta Center
04:31PM 32.0972 -84.0878 349° North 434 499 36,000  Level Atlanta Center
04:32PM 32.2183 -84.1150 349° North 434 499 36,000  Level Atlanta Center
04:33PM 32.3394 -84.1422 348° North 434 499 36,000  Level Atlanta Center
04:34PM 32.4603 -84.1717 350° North 434 499 36,000  Level Atlanta Center
04:35PM 32.5794 -84.1967 349° North 428 493 36,000  Level Atlanta Center
04:36PM 32.6961 -84.2239 349° North 428 493 36,000  Level Atlanta Center
04:37PM 32.8275 -84.2539 348° North 428 493 36,000  Level Atlanta Center
04:38PM 32.9467 -84.2839 350° North 435 501 36,000  Level Atlanta Center
04:39PM 33.0656 -84.3089 350° North 430 495 36,000  Level Atlanta Center
04:40PM 33.1844 -84.3342 350° North 430 495 36,000  Level Atlanta Center
04:41PM 33.2992 -84.3594 348° North 425 489 36,000  Level Atlanta Center
04:42PM 33.4158 -84.3897 350° North 430 495 36,000  Level Atlanta Center
04:43PM 33.5347 -84.4150 348° North 430 495 36,000  Level Atlanta Center
04:44PM 33.6411 -84.4431 350° North 430 495 36,000  Level Atlanta Center
04:45PM 33.7581 -84.4686 349° North 424 488 36,000  Level Atlanta Center
04:46PM 33.8769 -84.4967 349° North 429 494 36,000  Level Atlanta Center
04:47PM 33.9917 -84.5247 355° North 429 494 36,000  Level Atlanta Center
04:48PM 34.1272 -84.5381 354° North 435 501 36,000  Level Atlanta Center
04:49PM 34.2481 -84.5539 351° North 435 501 36,000  Level Atlanta Center
04:50PM 34.3669 -84.5772 349° North 435 501 36,000  Level Atlanta Center
04:51PM 34.4839 -84.6058 349° North 427 491 36,000  Level Atlanta Center
04:52PM 34.6006 -84.6344 346° North 427 491 36,000  Level Atlanta Center
04:53PM 34.7131 -84.6681 349° North 425 489 36,000  Level Atlanta Center
04:54PM 34.8297 -84.6967 348° North 425 489 36,000  Level Atlanta Center
04:55PM 34.9506 -84.7281 348° North 432 497 36,000  Level Atlanta Center
04:56PM 35.0694 -84.7594 349° North 432 497 36,000  Level Atlanta Center
04:57PM 35.1881 -84.7883 348° North 432 497 36,000  Level Atlanta Center
04:58PM 35.3089 -84.8200 348° North 432 497 36,000  Level Atlanta Center
04:59PM 35.4297 -84.8519 348° North 432 497 36,000  Level Atlanta Center
05:00PM 35.5486 -84.8836 348° North 432 497 36,000  Level Atlanta Center
05:01PM 35.6672 -84.9156 348° North 432 497 36,000  Level Atlanta Center
05:03PM 35.9108 -84.9800 348° North 477 549 36,000  Level Indianapolis Center
05:04PM 36.0231 -85.0103 349° North 466 536 36,000  Level Indianapolis Center
05:05PM 36.1417 -85.0381 350° North 454 522 36,000  Level Indianapolis Center
05:06PM 36.2603 -85.0636 350° North 442 509 36,000  Level Indianapolis Center
05:07PM 36.3808 -85.0892 349° North 437 503 36,000  Level Indianapolis Center
05:08PM 36.4994 -85.1175 350° North 437 503 36,000  Level Indianapolis Center
05:09PM 36.6200 -85.1431 350° North 432 497 36,000  Level Indianapolis Center
05:10PM 36.7364 -85.1689 349° North 432 497 36,000  Level Indianapolis Center
05:11PM 36.8569 -85.1975 351° North 432 497 36,000  Level Indianapolis Center
05:12PM 36.9736 -85.2208 349° North 427 491 36,000  Level Indianapolis Center
05:13PM 37.1044 -85.2522 350° North 427 491 36,000  Level Indianapolis Center
05:14PM 37.2250 -85.2783 349° North 432 497 36,000  Level Indianapolis Center
05:15PM 37.3456 -85.3075 349° North 437 503 36,000  Level Indianapolis Center
05:16PM 37.4619 -85.3364 350° North 427 491 36,000  Level Indianapolis Center
05:17PM 37.5806 -85.3628 350° North 427 491 36,000  Level Indianapolis Center
05:18PM 37.7033 -85.3892 350° North 436 502 36,000  Level Indianapolis Center
05:19PM 37.8217 -85.4158 353° North 436 502 36,000  Level Indianapolis Center
05:20PM 37.9342 -85.4344 350° North 436 502 36,000  Level Indianapolis Center
05:21PM 38.0525 -85.4614 349° North 436 502 36,000  Level Indianapolis Center
05:22PM 38.1731 -85.4908 351° North 436 502 36,000 -450 Level Indianapolis Center
05:23PM 38.2894 -85.5150 349° North 431 496 35,100 -900 Descending Indianapolis Center
05:24PM 38.4058 -85.5447 349° North 426 490 34,200 -550 Descending Indianapolis Center
05:25PM 38.5242 -85.5744 349° North 426 490 34,000 -300 Descending Indianapolis Center
05:26PM 38.6383 -85.6017 351° North 426 490 33,600 -1,400 Descending Indianapolis Center
05:27PM 38.7547 -85.6261 350° North 426 490 31,200 -1,800 Descending Indianapolis Center
05:28PM 38.8711 -85.6536 348° North 426 490 30,000 -600 Descending Indianapolis Center
05:29PM 38.9831 -85.6833 349° North 426 490 30,000  Level Indianapolis Center
05:30PM 39.0953 -85.7108 350° North 415 478 30,000  Level Indianapolis Center
05:31PM 39.2197 -85.7389 349° North 415 478 30,000 -100 Level Indianapolis Center
05:32PM 39.3339 -85.7664 350° North 409 471 29,800 -450 Descending Indianapolis Center
05:33PM 39.4503 -85.7942 350° North 409 471 29,100 -400 Descending Indianapolis Center
05:34PM 39.5625 -85.8194 350° North 416 479 29,000 -302 Descending Indianapolis Center
05:36PM 39.7894 -85.8728 349° North 409 471 28,200 -1,207 Descending Chicago Center
05:37PM 39.9008 -85.9022 346° North 409 471 25,400 -2,100 Descending Chicago Center
05:38PM 40.0103 -85.9372 340° North 409 471 24,000 -700 Descending Chicago Center
05:39PM 40.1119 -85.9864 340° North 404 465 24,000 -300 Level Chicago Center
05:40PM 40.2133 -86.0356 341° North 394 453 23,400 -800 Descending Chicago Center
05:41PM 40.3169 -86.0822 339° North 387 445 22,400 -1,000 Descending Chicago Center
05:42PM 40.4164 -86.1319 340° North 387 445 21,400 -1,000 Descending Chicago Center
05:43PM 40.5136 -86.1792 340° North 376 433 20,400 -1,000 Descending Chicago Center
05:44PM 40.6128 -86.2264 342° North 376 433 19,400 -950 Descending Chicago Center
05:45PM 40.6972 -86.2633 339° North 376 433 18,500 -900 Descending Chicago Center
05:46PM 40.8031 -86.3161 340° North 371 427 17,600 -1,650 Descending Chicago Center
05:47PM 40.8958 -86.3611 340° North 361 415 15,200 -2,400 Descending Chicago Center
05:48PM 40.9847 -86.4039 329° Northwest 354 407 12,800 -2,100 Descending Chicago Center
05:49PM 41.0611 -86.4639 299° West 332 382 11,000 -950 Descending Chicago Center
05:50PM 41.1011 -86.5611 310° West 323 372 10,900 -350 Descending Chicago Center
05:51PM 41.1619 -86.6581 320° Northwest 340 391 10,300 -450 Descending Chicago Center
05:52PM 41.2325 -86.7378 336° Northwest 321 369 10,000 -150 Descending Chicago Center
05:53PM 41.3064 -86.7819 337° Northwest 293 337 10,000  Level Chicago Center
05:54PM 41.3844 -86.8258 317° Northwest 299 344 10,000  Level Chicago Center
05:55PM 41.4403 -86.8958 292° West 277 319 10,000 -850 Level Chicago Center
05:56PM 41.4694 -86.9944 285° West 285 328 8,300 -1,200 Descending Chicago Center
05:58PM 41.5167 -87.2333 270° West 280 322 6,000 -690 Descending Chicago TRACON
05:59PM 41.5167 -87.3333 270° West 278 320 6,000 -333 Level Chicago TRACON
06:01PM 41.5167 -87.5333 283° West 278 320 5,000 -467 Descending Chicago TRACON
06:02PM 41.5333 -87.6333 285° West 279 321 4,600 -450 Descending Chicago TRACON
06:03PM 41.5500 -87.7167 294° West 227 261 4,100 -526 Descending Chicago TRACON
06:04PM 41.5667 -87.7667 304° West 187 215 3,600 -574 Descending Chicago TRACON
06:05PM 41.6000 -87.8333 323° Northwest 189 217 3,000 -545 Descending Chicago TRACON
06:06PM 41.6333 -87.8667 360° North 190 219 2,500 -250 Descending Chicago TRACON
06:07PM 41.6833 -87.8667 37° Northeast 178 205 2,500 -150 Level Chicago TRACON
06:08PM 41.7167 -87.8333 37° Northeast 151 174 2,200 -300 Descending Chicago TRACON